Time;durP1;ratioP1;P1;durP2;ratioP2;P2;SDS_P1;SDS_P2;PMS_P1;PMS_P2;Temp;Humidity;BMP_temperature;BMP_pressure;BME280_temperature;BME280_humidity;BME280_pressure;Samples;Min_cycle;Max_cycle;Signal;HPM_P1;HPM_P2
2022/07/07 00:02:21;;;;;;;;;;;18.40;93.50;;;;;;6091262;23;19928;-86
2022/07/07 00:04:49;;;;;;;;;;;18.40;93.50;;;;;;6115278;23;19917;-85
2022/07/07 00:07:18;;;;;;;;;;;18.80;93.70;;;;;;6115354;23;19928;-86
2022/07/07 00:09:45;;;;;;;;;;;18.40;93.70;;;;;;6113355;23;19915;-86
2022/07/07 00:12:13;;;;;;;;;;;18.40;93.90;;;;;;6114270;23;19921;-85
2022/07/07 00:14:43;;;;;;;;;;;18.40;93.90;;;;;;6112214;23;19925;-85
2022/07/07 00:17:11;;;;;;;;;;;18.30;93.70;;;;;;6089320;23;19927;-86
2022/07/07 00:19:41;;;;;;;;;;;18.30;94.30;;;;;;6116998;23;19927;-85
2022/07/07 00:22:09;;;;;;;;;;;18.20;94.00;;;;;;6112123;23;19937;-85
2022/07/07 00:24:36;;;;;;;;;;;18.20;94.20;;;;;;6112587;23;19921;-86
2022/07/07 00:27:06;;;;;;;;;;;18.20;94.10;;;;;;6112322;23;19921;-85
2022/07/07 00:29:39;;;;;;;;;;;18.20;94.10;;;;;;6109845;23;19943;-86
2022/07/07 00:32:13;;;;;;;;;;;18.00;94.10;;;;;;6105888;23;19932;-86
2022/07/07 00:34:42;;;;;;;;;;;18.20;94.40;;;;;;6081650;23;19935;-86
2022/07/07 00:37:11;;;;;;;;;;;18.10;94.40;;;;;;6108075;23;19928;-86
2022/07/07 00:39:41;;;;;;;;;;;18.10;94.40;;;;;;6110395;23;19922;-86
2022/07/07 00:42:15;;;;;;;;;;;18.10;94.60;;;;;;6108410;23;19943;-86
2022/07/07 00:44:43;;;;;;;;;;;18.20;94.40;;;;;;6106176;23;19921;-85
2022/07/07 00:47:12;;;;;;;;;;;18.20;94.70;;;;;;6081581;23;19929;-86
2022/07/07 00:49:40;;;;;;;;;;;17.80;94.40;;;;;;6080037;23;19921;-86
2022/07/07 00:52:11;;;;;;;;;;;18.20;94.60;;;;;;6105018;23;19930;-86
2022/07/07 00:54:49;;;;;;;;;;;18.20;94.60;;;;;;6104738;23;19922;-86
2022/07/07 00:57:16;;;;;;;;;;;18.20;94.70;;;;;;6108124;23;19925;-86
2022/07/07 00:59:59;;;;;;;;;;;18.30;94.90;;;;;;6109552;23;19929;-85
2022/07/07 01:02:29;;;;;;;;;;;18.30;94.80;;;;;;6108231;23;19940;-86
2022/07/07 01:05:05;;;;;;;;;;;18.30;94.60;;;;;;6107579;23;19921;-87
2022/07/07 01:07:33;;;;;;;;;;;18.30;94.80;;;;;;6111785;23;19921;-86
2022/07/07 01:10:04;;;;;;;;;;;18.40;94.70;;;;;;6084778;23;19931;-85
2022/07/07 01:12:39;;;;;;;;;;;17.90;94.60;;;;;;6110707;23;19921;-85
2022/07/07 01:15:09;;;;;;;;;;;18.70;94.90;;;;;;6113740;23;19925;-85
2022/07/07 01:17:40;;;;;;;;;;;18.60;94.70;;;;;;6117021;23;19909;-86
2022/07/07 01:20:11;;;;;;;;;;;18.40;94.80;;;;;;6109872;23;19921;-86
2022/07/07 01:22:53;;;;;;;;;;;18.40;94.80;;;;;;6115828;23;20321;-85
2022/07/07 01:25:22;;;;;;;;;;;18.10;94.70;;;;;;6086633;23;19936;-86
2022/07/07 01:27:50;;;;;;;;;;;18.40;95.00;;;;;;6115715;23;19921;-86
2022/07/07 01:30:19;;;;;;;;;;;18.40;94.90;;;;;;6107825;23;19921;-85
2022/07/07 01:32:47;;;;;;;;;;;18.40;95.00;;;;;;6084908;23;19921;-86
2022/07/07 01:35:17;;;;;;;;;;;18.40;95.00;;;;;;6106765;23;19972;-86
2022/07/07 01:37:45;;;;;;;;;;;18.40;95.10;;;;;;6107698;23;19921;-86
2022/07/07 01:40:13;;;;;;;;;;;18.30;95.20;;;;;;6081688;23;20245;-86
2022/07/07 01:42:40;;;;;;;;;;;18.30;95.50;;;;;;6108511;23;19929;-86
2022/07/07 01:45:10;;;;;;;;;;;18.30;95.40;;;;;;6106272;23;19921;-85
2022/07/07 01:47:38;;;;;;;;;;;18.20;95.40;;;;;;6111731;23;19944;-86
2022/07/07 01:50:05;;;;;;;;;;;18.20;95.60;;;;;;6104493;23;19944;-86
2022/07/07 01:52:36;;;;;;;;;;;18.20;95.50;;;;;;6107391;23;19921;-85
2022/07/07 01:55:09;;;;;;;;;;;17.50;95.30;;;;;;6085849;23;19926;-85
2022/07/07 01:57:40;;;;;;;;;;;19.00;95.80;;;;;;6062484;23;19921;-86
2022/07/07 02:00:11;;;;;;;;;;;18.20;95.80;;;;;;6112735;23;19927;-86
2022/07/07 02:02:39;;;;;;;;;;;18.10;95.80;;;;;;6106839;23;20542;-86
2022/07/07 02:05:07;;;;;;;;;;;18.10;95.90;;;;;;6107382;23;19928;-86
2022/07/07 02:07:35;;;;;;;;;;;18.10;96.30;;;;;;6109570;23;19921;-85
2022/07/07 02:10:05;;;;;;;;;;;18.00;96.00;;;;;;6114002;23;19932;-86
2022/07/07 02:12:35;;;;;;;;;;;18.00;96.00;;;;;;6087429;23;19925;-86
2022/07/07 02:15:03;;;;;;;;;;;18.00;96.20;;;;;;6110670;23;19932;-86
2022/07/07 02:17:34;;;;;;;;;;;18.10;96.40;;;;;;6110949;23;19925;-87
2022/07/07 02:20:06;;;;;;;;;;;18.10;96.50;;;;;;6112382;23;19921;-86
2022/07/07 02:22:40;;;;;;;;;;;18.10;96.40;;;;;;6110334;23;19921;-85
2022/07/07 02:25:09;;;;;;;;;;;18.10;96.50;;;;;;6108656;23;19928;-86
2022/07/07 02:27:36;;;;;;;;;;;18.10;96.50;;;;;;6109235;23;19921;-86
2022/07/07 02:30:06;;;;;;;;;;;18.60;96.60;;;;;;6109146;23;19922;-86
2022/07/07 02:32:34;;;;;;;;;;;18.20;96.60;;;;;;6112862;23;19921;-86
2022/07/07 02:35:02;;;;;;;;;;;17.00;96.20;;;;;;6110232;23;19921;-84
2022/07/07 02:37:32;;;;;;;;;;;18.20;96.40;;;;;;6086579;23;19927;-86
2022/07/07 02:40:04;;;;;;;;;;;18.20;96.50;;;;;;6111232;23;20253;-86
2022/07/07 02:42:34;;;;;;;;;;;18.20;96.50;;;;;;6110669;23;19928;-86
2022/07/07 02:45:04;;;;;;;;;;;18.20;96.50;;;;;;6086896;23;19932;-86
2022/07/07 02:47:32;;;;;;;;;;;18.30;96.40;;;;;;6113718;23;19936;-87
2022/07/07 02:50:04;;;;;;;;;;;18.30;96.60;;;;;;6109760;23;19921;-86
2022/07/07 02:52:33;;;;;;;;;;;18.30;96.60;;;;;;6137003;23;19925;-86
2022/07/07 02:55:01;;;;;;;;;;;18.30;96.80;;;;;;6086395;23;19927;-85
2022/07/07 02:57:34;;;;;;;;;;;18.30;96.60;;;;;;6084873;23;19927;-86
2022/07/07 03:00:09;;;;;;;;;;;18.30;96.60;;;;;;6109628;23;19927;-86
2022/07/07 03:02:37;;;;;;;;;;;18.00;96.60;;;;;;6112569;23;19925;-86
2022/07/07 03:05:07;;;;;;;;;;;18.30;96.70;;;;;;6108853;23;19940;-86
2022/07/07 03:07:35;;;;;;;;;;;18.30;96.60;;;;;;6113081;23;19921;-86
2022/07/07 03:10:06;;;;;;;;;;;18.30;96.90;;;;;;6108685;23;19929;-85
2022/07/07 03:12:34;;;;;;;;;;;18.30;96.70;;;;;;6112123;23;19927;-86
2022/07/07 03:15:02;;;;;;;;;;;18.30;97.00;;;;;;6106669;23;20262;-86
2022/07/07 03:17:34;;;;;;;;;;;18.30;96.80;;;;;;6111602;23;19929;-86
2022/07/07 03:20:07;;;;;;;;;;;18.30;96.90;;;;;;6107245;23;19925;-85
2022/07/07 03:22:36;;;;;;;;;;;18.30;96.80;;;;;;6111992;23;19932;-86
2022/07/07 03:25:08;;;;;;;;;;;18.30;96.90;;;;;;6135536;23;19931;-86
2022/07/07 03:27:36;;;;;;;;;;;18.30;96.80;;;;;;6115854;23;19928;-86
2022/07/07 03:30:06;;;;;;;;;;;18.30;96.80;;;;;;6113133;23;19909;-87
2022/07/07 03:32:47;;;;;;;;;;;17.50;96.60;;;;;;6090457;23;19921;-86
2022/07/07 03:35:16;;;;;;;;;;;18.30;97.10;;;;;;6112004;23;19928;-87
2022/07/07 03:38:20;;;;;;;;;;;18.40;96.90;;;;;;6109628;23;19925;-86
2022/07/07 03:40:48;;;;;;;;;;;18.30;96.70;;;;;;6114008;23;19931;-86
2022/07/07 03:43:18;;;;;;;;;;;18.40;96.90;;;;;;6107861;23;19947;-85
2022/07/07 03:45:50;;;;;;;;;;;18.40;96.70;;;;;;6112436;23;19921;-86
2022/07/07 03:48:19;;;;;;;;;;;18.40;96.70;;;;;;6085790;23;19928;-86
2022/07/07 03:50:47;;;;;;;;;;;18.40;96.80;;;;;;6116256;23;19921;-87
2022/07/07 03:53:28;;;;;;;;;;;18.40;96.70;;;;;;6112283;23;19931;-86
2022/07/07 03:55:59;;;;;;;;;;;18.40;96.60;;;;;;6116182;23;19944;-86
2022/07/07 03:58:31;;;;;;;;;;;18.40;96.80;;;;;;6110681;23;20126;-86
2022/07/07 04:01:03;;;;;;;;;;;18.00;96.60;;;;;;6112239;23;19921;-86
2022/07/07 04:03:32;;;;;;;;;;;18.40;96.60;;;;;;6087135;23;19922;-86
2022/07/07 04:06:03;;;;;;;;;;;18.40;96.50;;;;;;6116399;23;20192;-85
2022/07/07 04:08:33;;;;;;;;;;;18.40;96.50;;;;;;6088774;23;19925;-86
2022/07/07 04:11:02;;;;;;;;;;;18.40;96.50;;;;;;6112289;23;19921;-86
2022/07/07 04:13:31;;;;;;;;;;;18.40;96.50;;;;;;6090386;23;19921;-87
2022/07/07 04:16:04;;;;;;;;;;;18.30;96.70;;;;;;6093369;23;19921;-86
2022/07/07 04:18:36;;;;;;;;;;;18.30;97.00;;;;;;6090235;23;19921;-85
2022/07/07 04:21:06;;;;;;;;;;;18.30;96.80;;;;;;6089632;23;19909;-86
2022/07/07 04:23:36;;;;;;;;;;;18.30;96.80;;;;;;6112125;23;19922;-87
2022/07/07 04:26:32;;;;;;;;;;;18.20;96.80;;;;;;6090580;23;19921;-86
2022/07/07 04:29:02;;;;;;;;;;;18.20;96.90;;;;;;6090988;23;19922;-87
2022/07/07 04:31:39;;;;;;;;;;;18.20;96.90;;;;;;6113835;23;19921;-85
2022/07/07 04:34:22;;;;;;;;;;;18.20;96.80;;;;;;6110770;23;19925;-85
2022/07/07 04:36:52;;;;;;;;;;;18.20;97.00;;;;;;6111609;23;19925;-86
2022/07/07 04:39:23;;;;;;;;;;;18.20;97.00;;;;;;6112899;23;19925;-86
2022/07/07 04:41:54;;;;;;;;;;;18.20;96.90;;;;;;6111570;23;19935;-86
2022/07/07 04:44:26;;;;;;;;;;;18.20;97.00;;;;;;6110730;23;19925;-86
2022/07/07 04:47:11;;;;;;;;;;;18.10;97.00;;;;;;6111228;23;20657;-86
2022/07/07 04:49:41;;;;;;;;;;;18.20;97.00;;;;;;6111973;23;19969;-85
2022/07/07 04:52:12;;;;;;;;;;;18.20;96.90;;;;;;6090385;23;19925;-86
2022/07/07 04:54:45;;;;;;;;;;;18.10;97.00;;;;;;6090419;23;19927;-86
2022/07/07 04:57:24;;;;;;;;;;;18.10;96.90;;;;;;6088437;23;19905;-87
2022/07/07 04:59:58;;;;;;;;;;;18.10;97.00;;;;;;6087614;23;19929;-87
2022/07/07 05:02:27;;;;;;;;;;;18.00;96.90;;;;;;6084507;23;19937;-86
2022/07/07 05:05:29;;;;;;;;;;;18.10;96.90;;;;;;6085030;23;19921;-87
2022/07/07 05:08:06;;;;;;;;;;;18.10;96.90;;;;;;6108762;23;19921;-86
2022/07/07 05:10:36;;;;;;;;;;;18.10;97.00;;;;;;6107926;23;19926;-87
2022/07/07 05:13:05;;;;;;;;;;;18.10;97.30;;;;;;6109841;23;19925;-85
2022/07/07 05:15:33;;;;;;;;;;;18.10;97.10;;;;;;6078887;23;19925;-85
2022/07/07 05:18:03;;;;;;;;;;;18.10;96.90;;;;;;6111639;23;19928;-85
2022/07/07 05:20:34;;;;;;;;;;;18.20;96.80;;;;;;6111586;23;19921;-85
2022/07/07 05:23:29;;;;;;;;;;;18.00;96.70;;;;;;6087120;23;19925;-85
2022/07/07 05:26:07;;;;;;;;;;;18.00;96.70;;;;;;6111125;23;19921;-86
2022/07/07 05:28:42;;;;;;;;;;;17.90;96.60;;;;;;6108454;23;19922;-85
2022/07/07 05:31:16;;;;;;;;;;;17.90;96.70;;;;;;6085411;23;19921;-86
2022/07/07 05:34:14;;;;;;;;;;;17.90;96.70;;;;;;6111112;23;19925;-86
2022/07/07 05:36:49;;;;;;;;;;;17.70;96.60;;;;;;6111666;23;19921;-85
2022/07/07 05:39:23;;;;;;;;;;;17.90;96.70;;;;;;6114153;23;19927;-87
2022/07/07 05:41:52;;;;;;;;;;;17.90;96.70;;;;;;6110833;23;20233;-86
2022/07/07 05:44:25;;;;;;;;;;;17.90;96.80;;;;;;6110172;23;19921;-86
2022/07/07 05:46:54;;;;;;;;;;;18.00;96.80;;;;;;6086508;23;19932;-86
2022/07/07 05:49:23;;;;;;;;;;;18.00;96.80;;;;;;6111043;23;19925;-85
2022/07/07 05:52:04;;;;;;;;;;;17.80;96.70;;;;;;6111781;23;19921;-83
2022/07/07 05:54:33;;;;;;;;;;;17.90;96.70;;;;;;6113703;23;19925;-85
2022/07/07 05:57:06;;;;;;;;;;;17.80;96.70;;;;;;6115238;23;19925;-86
2022/07/07 05:59:34;;;;;;;;;;;17.80;96.80;;;;;;6112206;23;19932;-86
2022/07/07 06:02:03;;;;;;;;;;;17.80;96.50;;;;;;6087256;23;19932;-86
2022/07/07 06:04:31;;;;;;;;;;;17.80;96.40;;;;;;6112595;23;19928;-86
2022/07/07 06:07:07;;;;;;;;;;;17.80;96.30;;;;;;6112857;23;19921;-86
2022/07/07 06:09:35;;;;;;;;;;;17.80;96.30;;;;;;6109196;23;19925;-86
2022/07/07 06:12:04;;;;;;;;;;;17.80;96.30;;;;;;6083230;23;20301;-85
2022/07/07 06:14:32;;;;;;;;;;;17.80;95.90;;;;;;6106099;23;20314;-87
2022/07/07 06:17:02;;;;;;;;;;;17.80;95.70;;;;;;6109085;23;19969;-86
2022/07/07 06:19:34;;;;;;;;;;;17.90;95.80;;;;;;6106313;23;20330;-85
2022/07/07 06:22:03;;;;;;;;;;;17.90;95.60;;;;;;6084240;23;19921;-85
2022/07/07 06:24:34;;;;;;;;;;;18.00;95.60;;;;;;6081301;23;20245;-85
2022/07/07 06:27:04;;;;;;;;;;;18.00;95.50;;;;;;6103236;23;19932;-85
2022/07/07 06:29:45;;;;;;;;;;;18.00;95.40;;;;;;6105860;23;19936;-86
2022/07/07 06:32:16;;;;;;;;;;;18.00;95.50;;;;;;6106496;23;19927;-85
2022/07/07 06:34:48;;;;;;;;;;;18.00;95.50;;;;;;6102451;23;19921;-85
2022/07/07 06:37:17;;;;;;;;;;;18.00;95.50;;;;;;6100101;23;19928;-85
2022/07/07 06:39:44;;;;;;;;;;;18.00;95.70;;;;;;6080889;23;19931;-86
2022/07/07 06:42:13;;;;;;;;;;;18.10;95.90;;;;;;6107242;23;19935;-86
2022/07/07 06:44:42;;;;;;;;;;;18.10;95.60;;;;;;6115651;23;19922;-86
2022/07/07 06:47:15;;;;;;;;;;;18.00;95.60;;;;;;6090611;23;19921;-84
2022/07/07 06:49:45;;;;;;;;;;;18.10;95.60;;;;;;6134789;23;19925;-86
2022/07/07 06:52:15;;;;;;;;;;;18.00;95.70;;;;;;6118011;23;19928;-86
2022/07/07 06:54:46;;;;;;;;;;;18.00;95.70;;;;;;6113516;23;19925;-86
2022/07/07 06:57:15;;;;;;;;;;;18.10;95.50;;;;;;6085560;23;19926;-86
2022/07/07 06:59:47;;;;;;;;;;;18.10;95.40;;;;;;6108656;23;19932;-85
2022/07/07 07:02:15;;;;;;;;;;;17.20;95.00;;;;;;6112819;23;19949;-86
2022/07/07 07:04:47;;;;;;;;;;;18.20;95.30;;;;;;6103179;23;19951;-86
2022/07/07 07:07:18;;;;;;;;;;;18.90;95.10;;;;;;6082149;23;19928;-87
2022/07/07 07:09:47;;;;;;;;;;;18.00;94.90;;;;;;6106417;23;19922;-86
2022/07/07 07:12:18;;;;;;;;;;;18.30;94.90;;;;;;6083205;23;19926;-85
2022/07/07 07:14:47;;;;;;;;;;;18.30;94.80;;;;;;6109571;23;19922;-84
2022/07/07 07:17:16;;;;;;;;;;;19.40;94.90;;;;;;6102218;23;20334;-85
2022/07/07 07:19:45;;;;;;;;;;;18.40;94.50;;;;;;6104441;23;19931;-85
2022/07/07 07:22:14;;;;;;;;;;;18.40;94.40;;;;;;6107963;23;19925;-85
2022/07/07 07:24:42;;;;;;;;;;;18.30;94.40;;;;;;6083313;23;19925;-85
2022/07/07 07:27:12;;;;;;;;;;;18.40;94.20;;;;;;6082793;23;19926;-85
2022/07/07 07:29:42;;;;;;;;;;;18.40;94.40;;;;;;6114016;23;19940;-86
2022/07/07 07:32:10;;;;;;;;;;;18.50;94.30;;;;;;6109447;23;19935;-85
2022/07/07 07:34:39;;;;;;;;;;;18.50;94.20;;;;;;6134135;23;19928;-85
2022/07/07 07:37:12;;;;;;;;;;;18.60;94.10;;;;;;6110077;23;19928;-85
2022/07/07 07:39:43;;;;;;;;;;;18.60;93.90;;;;;;6110132;23;19936;-84
2022/07/07 07:42:12;;;;;;;;;;;18.70;94.00;;;;;;6110617;23;19998;-86
2022/07/07 07:47:29;;;;;;;;;;;18.80;93.70;;;;;;6114917;23;19928;-85
2022/07/07 07:50:05;;;;;;;;;;;18.70;93.80;;;;;;6111022;23;20277;-86
2022/07/07 07:52:35;;;;;;;;;;;18.60;93.70;;;;;;6112566;23;19925;-84
2022/07/07 07:55:12;;;;;;;;;;;18.70;93.80;;;;;;6109998;23;19921;-86
2022/07/07 07:57:42;;;;;;;;;;;18.70;93.70;;;;;;6111760;23;19921;-84
2022/07/07 08:00:15;;;;;;;;;;;18.70;93.70;;;;;;6114151;23;19925;-86
2022/07/07 08:02:49;;;;;;;;;;;18.70;93.50;;;;;;6108120;23;19922;-86
2022/07/07 08:05:21;;;;;;;;;;;18.70;93.70;;;;;;6108684;23;19935;-85
2022/07/07 08:07:49;;;;;;;;;;;18.70;93.60;;;;;;6108426;23;19928;-84
2022/07/07 08:10:18;;;;;;;;;;;18.80;93.60;;;;;;6133185;23;19921;-84
2022/07/07 08:12:49;;;;;;;;;;;18.80;93.60;;;;;;6081575;23;19925;-86
2022/07/07 08:15:18;;;;;;;;;;;18.90;93.60;;;;;;6107925;23;19921;-86
2022/07/07 08:17:49;;;;;;;;;;;18.90;93.40;;;;;;6109799;23;20219;-86
2022/07/07 08:20:20;;;;;;;;;;;18.90;93.10;;;;;;6108876;23;19974;-86
2022/07/07 08:22:52;;;;;;;;;;;18.90;93.30;;;;;;6106388;23;19921;-85
2022/07/07 08:25:21;;;;;;;;;;;19.10;93.40;;;;;;6110831;23;19931;-86
2022/07/07 08:27:50;;;;;;;;;;;19.00;93.30;;;;;;6115410;23;19932;-87
2022/07/07 08:30:18;;;;;;;;;;;18.90;93.20;;;;;;6076859;23;20197;-86
2022/07/07 08:32:47;;;;;;;;;;;18.80;93.20;;;;;;6102766;23;19932;-85
2022/07/07 08:35:16;;;;;;;;;;;18.90;93.40;;;;;;6107618;23;19921;-85
2022/07/07 08:37:45;;;;;;;;;;;19.00;93.30;;;;;;6124765;23;19922;-87
2022/07/07 08:40:13;;;;;;;;;;;19.10;93.30;;;;;;6099338;23;19922;-86
2022/07/07 08:42:41;;;;;;;;;;;19.30;92.80;;;;;;6102439;23;19922;-85
2022/07/07 08:45:10;;;;;;;;;;;19.30;92.70;;;;;;6100875;23;20561;-86
2022/07/07 08:47:45;;;;;;;;;;;19.40;92.70;;;;;;6103513;23;19939;-86
2022/07/07 08:50:15;;;;;;;;;;;19.40;92.60;;;;;;6100609;23;19925;-85
2022/07/07 08:52:45;;;;;;;;;;;19.50;92.40;;;;;;6080609;23;19921;-86
2022/07/07 08:55:16;;;;;;;;;;;19.30;92.50;;;;;;6080025;23;19925;-86
2022/07/07 08:57:46;;;;;;;;;;;19.60;92.50;;;;;;6103482;23;19928;-86
2022/07/07 09:00:23;;;;;;;;;;;19.70;92.40;;;;;;6099995;23;19921;-85
2022/07/07 09:02:58;;;;;;;;;;;19.80;92.10;;;;;;6098167;23;19921;-86
2022/07/07 09:05:26;;;;;;;;;;;19.90;92.10;;;;;;6100854;23;19925;-86
2022/07/07 09:07:54;;;;;;;;;;;19.90;92.10;;;;;;6103827;23;20353;-86
2022/07/07 09:10:31;;;;;;;;;;;19.90;92.00;;;;;;6107714;23;19931;-86
2022/07/07 09:13:00;;;;;;;;;;;20.00;91.90;;;;;;6115033;23;19926;-86
2022/07/07 09:15:39;;;;;;;;;;;20.00;91.60;;;;;;6101111;23;19944;-86
2022/07/07 09:18:07;;;;;;;;;;;19.90;91.60;;;;;;6099989;23;19925;-87
2022/07/07 09:20:37;;;;;;;;;;;20.00;91.80;;;;;;6102160;23;19931;-86
2022/07/07 09:23:04;;;;;;;;;;;20.10;91.60;;;;;;6129228;23;20323;-86
2022/07/07 09:25:33;;;;;;;;;;;20.10;91.90;;;;;;6104564;23;20489;-85
2022/07/07 09:28:22;;;;;;;;;;;20.10;91.70;;;;;;6081715;23;19927;-86
2022/07/07 09:30:54;;;;;;;;;;;20.20;91.80;;;;;;6104373;23;20480;-86
2022/07/07 09:33:26;;;;;;;;;;;19.60;91.70;;;;;;6108928;23;19988;-86
2022/07/07 09:38:45;;;;;;;;;;;20.10;91.50;;;;;;6101995;23;19921;-86
2022/07/07 09:41:20;;;;;;;;;;;20.00;91.50;;;;;;6101778;23;19925;-86
2022/07/07 09:44:01;;;;;;;;;;;19.90;91.50;;;;;;6107458;23;20330;-86
2022/07/07 09:46:41;;;;;;;;;;;20.10;91.60;;;;;;6105174;23;19925;-86
2022/07/07 09:49:13;;;;;;;;;;;19.90;91.70;;;;;;6079989;23;19927;-86
2022/07/07 09:51:42;;;;;;;;;;;19.90;91.60;;;;;;6078254;23;19921;-87
2022/07/07 09:54:14;;;;;;;;;;;19.90;91.80;;;;;;6103962;23;19925;-86
2022/07/07 09:56:46;;;;;;;;;;;20.00;91.40;;;;;;6107639;23;19925;-86
2022/07/07 09:59:22;;;;;;;;;;;20.10;91.20;;;;;;6102442;23;19929;-86
2022/07/07 10:01:50;;;;;;;;;;;20.30;91.20;;;;;;6101298;23;19921;-85
2022/07/07 10:04:22;;;;;;;;;;;20.40;91.00;;;;;;6099591;23;20376;-86
2022/07/07 10:06:54;;;;;;;;;;;20.50;90.50;;;;;;6100177;23;19925;-86
2022/07/07 10:09:25;;;;;;;;;;;20.50;90.30;;;;;;6103351;23;19922;-85
2022/07/07 10:11:54;;;;;;;;;;;20.70;90.30;;;;;;6080432;23;20289;-84
2022/07/07 10:14:28;;;;;;;;;;;20.70;90.30;;;;;;6104225;23;19925;-84
2022/07/07 10:16:57;;;;;;;;;;;20.80;90.10;;;;;;6106488;23;19921;-86
2022/07/07 10:19:26;;;;;;;;;;;20.80;89.70;;;;;;6107300;23;19926;-85
2022/07/07 10:21:58;;;;;;;;;;;20.80;89.50;;;;;;6081450;23;19925;-85
2022/07/07 10:24:28;;;;;;;;;;;20.80;89.60;;;;;;6103993;23;20331;-86
2022/07/07 10:26:59;;;;;;;;;;;20.70;88.50;;;;;;6128365;23;19921;-86
2022/07/07 10:29:39;;;;;;;;;;;20.70;89.70;;;;;;6103259;23;19925;-85
2022/07/07 10:32:11;;;;;;;;;;;20.70;89.40;;;;;;6101209;23;19949;-86
2022/07/07 10:34:41;;;;;;;;;;;20.80;89.00;;;;;;6103881;23;19928;-86
2022/07/07 10:37:12;;;;;;;;;;;20.80;89.30;;;;;;6107625;23;19948;-85
2022/07/07 10:39:47;;;;;;;;;;;20.90;89.40;;;;;;6080694;23;19921;-86
2022/07/07 10:42:16;;;;;;;;;;;20.90;88.90;;;;;;6104746;23;19925;-85
2022/07/07 10:44:45;;;;;;;;;;;20.90;89.00;;;;;;6080902;23;20265;-88
2022/07/07 10:47:13;;;;;;;;;;;20.70;88.80;;;;;;6078152;23;19925;-86
2022/07/07 10:49:43;;;;;;;;;;;20.80;88.80;;;;;;6079590;23;19926;-87
2022/07/07 10:52:18;;;;;;;;;;;20.70;88.40;;;;;;6106446;23;19925;-86
2022/07/07 10:54:58;;;;;;;;;;;20.90;88.50;;;;;;6102138;23;19927;-87
2022/07/07 10:57:29;;;;;;;;;;;21.00;88.30;;;;;;6078327;23;19935;-87
2022/07/07 10:59:59;;;;;;;;;;;21.00;87.60;;;;;;6078632;23;19931;-87
2022/07/07 11:02:48;;;;;;;;;;;21.00;87.50;;;;;;6078823;23;20001;-86
2022/07/07 11:05:16;;;;;;;;;;;20.90;87.10;;;;;;6101774;23;19925;-86
2022/07/07 11:07:56;;;;;;;;;;;21.00;87.90;;;;;;6103838;23;19927;-85
2022/07/07 11:10:47;;;;;;;;;;;21.00;87.10;;;;;;6103270;23;19931;-86
2022/07/07 11:13:38;;;;;;;;;;;21.00;87.60;;;;;;6081692;23;19925;-87
2022/07/07 11:16:23;;;;;;;;;;;21.00;87.30;;;;;;6108184;23;19928;-88
2022/07/07 11:19:03;;;;;;;;;;;21.00;87.30;;;;;;6081503;23;19927;-87
2022/07/07 11:21:44;;;;;;;;;;;21.00;87.60;;;;;;6085680;23;20335;-87
2022/07/07 11:24:21;;;;;;;;;;;21.00;87.00;;;;;;6109369;23;19928;-87
2022/07/07 11:26:53;;;;;;;;;;;21.00;87.50;;;;;;6081967;23;19921;-87
2022/07/07 11:29:28;;;;;;;;;;;20.90;87.30;;;;;;6108721;23;19931;-87
2022/07/07 11:32:07;;;;;;;;;;;20.90;87.70;;;;;;6105111;23;20015;-87
2022/07/07 11:34:44;;;;;;;;;;;20.90;87.60;;;;;;6109284;23;20408;-86
2022/07/07 11:37:19;;;;;;;;;;;20.80;87.60;;;;;;6101187;23;19951;-88
2022/07/07 11:39:51;;;;;;;;;;;20.80;87.50;;;;;;6101592;23;20342;-88
2022/07/07 11:42:20;;;;;;;;;;;20.80;87.70;;;;;;6129854;23;19925;-86
2022/07/07 11:44:49;;;;;;;;;;;21.00;88.20;;;;;;6106227;23;19921;-87
2022/07/07 11:47:20;;;;;;;;;;;20.80;87.70;;;;;;6082440;23;19925;-86
2022/07/07 11:49:47;;;;;;;;;;;20.80;88.10;;;;;;6107786;23;19931;-86
2022/07/07 11:52:25;;;;;;;;;;;20.90;88.00;;;;;;6112035;23;20294;-85
2022/07/07 11:55:02;;;;;;;;;;;20.90;87.40;;;;;;6114416;23;19921;-86
2022/07/07 11:57:32;;;;;;;;;;;21.00;87.40;;;;;;6112860;23;20330;-87
2022/07/07 12:00:13;;;;;;;;;;;21.00;87.20;;;;;;6087082;23;20292;-86
2022/07/07 12:02:54;;;;;;;;;;;21.00;87.00;;;;;;6083752;23;19925;-88
2022/07/07 12:05:26;;;;;;;;;;;21.00;86.90;;;;;;6106252;23;19921;-87
2022/07/07 12:08:00;;;;;;;;;;;21.00;86.80;;;;;;6105667;23;19927;-86
2022/07/07 12:10:39;;;;;;;;;;;21.00;87.20;;;;;;6103990;23;19925;-85
2022/07/07 12:13:10;;;;;;;;;;;21.00;87.10;;;;;;6081216;23;19925;-88
2022/07/07 12:15:40;;;;;;;;;;;20.80;87.20;;;;;;6107301;23;20179;-88
2022/07/07 12:18:33;;;;;;;;;;;21.40;87.30;;;;;;6107832;23;19922;-86
2022/07/07 12:21:06;;;;;;;;;;;21.20;87.20;;;;;;6110323;23;19921;-87
2022/07/07 12:23:40;;;;;;;;;;;21.30;86.60;;;;;;6111148;23;19922;-86
2022/07/07 12:26:14;;;;;;;;;;;21.40;86.70;;;;;;6116278;23;19909;-87
2022/07/07 12:29:02;;;;;;;;;;;21.40;86.60;;;;;;6120465;23;19935;-86
2022/07/07 12:31:31;;;;;;;;;;;21.50;86.20;;;;;;6115758;23;19937;-85
2022/07/07 12:34:10;;;;;;;;;;;21.60;86.20;;;;;;6061478;23;19932;-85
2022/07/07 12:36:40;;;;;;;;;;;21.60;85.70;;;;;;6063491;23;20360;-85
2022/07/07 12:39:15;;;;;;;;;;;21.60;86.00;;;;;;6111424;23;19925;-87
2022/07/07 12:41:43;;;;;;;;;;;21.80;86.30;;;;;;6105023;23;19928;-86
2022/07/07 12:44:21;;;;;;;;;;;21.90;86.10;;;;;;6080988;23;19928;-86
2022/07/07 12:47:11;;;;;;;;;;;22.10;85.10;;;;;;6100903;23;19921;-84
2022/07/07 12:49:51;;;;;;;;;;;22.20;85.10;;;;;;6106947;23;19928;-86
2022/07/07 12:52:21;;;;;;;;;;;22.30;85.10;;;;;;6108186;23;19921;-87
2022/07/07 12:54:55;;;;;;;;;;;22.30;84.20;;;;;;6108054;23;19928;-86
2022/07/07 12:57:29;;;;;;;;;;;22.40;84.80;;;;;;6111383;23;19921;-86
2022/07/07 12:59:57;;;;;;;;;;;22.60;84.80;;;;;;6087440;23;19932;-85
2022/07/07 13:02:25;;;;;;;;;;;22.70;83.60;;;;;;6109501;23;19917;-87
2022/07/07 13:04:57;;;;;;;;;;;22.80;84.00;;;;;;6108865;23;19921;-87
2022/07/07 13:07:27;;;;;;;;;;;22.90;83.40;;;;;;6105507;23;19929;-87
2022/07/07 13:09:55;;;;;;;;;;;22.90;83.70;;;;;;6110662;23;19921;-86
2022/07/07 13:12:31;;;;;;;;;;;22.80;82.60;;;;;;6105062;23;20343;-87
2022/07/07 13:15:02;;;;;;;;;;;22.90;83.40;;;;;;6105246;23;19921;-86
2022/07/07 13:17:31;;;;;;;;;;;23.10;82.50;;;;;;6103877;23;19927;-85
2022/07/07 13:20:07;;;;;;;;;;;23.40;82.00;;;;;;6081599;23;19928;-87
2022/07/07 13:22:37;;;;;;;;;;;23.70;81.80;;;;;;6106666;23;20348;-85
2022/07/07 13:25:09;;;;;;;;;;;23.90;81.00;;;;;;6107601;23;19921;-86
2022/07/07 13:27:37;;;;;;;;;;;24.30;80.60;;;;;;6102479;23;20270;-85
2022/07/07 13:30:06;;;;;;;;;;;24.30;78.70;;;;;;6104528;23;19932;-86
2022/07/07 13:32:44;;;;;;;;;;;24.10;79.20;;;;;;6105630;23;19925;-86
2022/07/07 13:35:19;;;;;;;;;;;24.00;79.20;;;;;;6078431;23;19930;-87
2022/07/07 13:37:58;;;;;;;;;;;24.00;79.30;;;;;;6104651;23;19921;-88
2022/07/07 13:40:28;;;;;;;;;;;24.10;79.00;;;;;;6108892;23;20354;-86
2022/07/07 13:43:17;;;;;;;;;;;24.50;78.40;;;;;;6080869;23;19922;-86
2022/07/07 13:45:51;;;;;;;;;;;24.20;77.90;;;;;;6106603;23;19928;-86
2022/07/07 13:48:20;;;;;;;;;;;24.40;77.10;;;;;;6104010;23;20246;-87
2022/07/07 13:50:54;;;;;;;;;;;24.80;76.20;;;;;;6082193;23;20272;-87
2022/07/07 13:53:38;;;;;;;;;;;25.10;74.80;;;;;;6104105;23;19925;-87
2022/07/07 13:56:31;;;;;;;;;;;25.60;75.30;;;;;;6104271;23;19921;-87
2022/07/07 13:59:01;;;;;;;;;;;26.10;75.00;;;;;;6108769;23;19925;-86
2022/07/07 14:01:38;;;;;;;;;;;26.30;73.10;;;;;;6127693;23;20029;-86
2022/07/07 14:04:07;;;;;;;;;;;26.40;72.50;;;;;;6109862;23;19925;-86
2022/07/07 14:06:53;;;;;;;;;;;26.60;73.30;;;;;;6105973;23;19921;-86
2022/07/07 14:09:25;;;;;;;;;;;26.90;71.80;;;;;;6105451;23;19925;-86
2022/07/07 14:12:12;;;;;;;;;;;27.10;72.10;;;;;;6105997;23;19922;-88
2022/07/07 14:14:42;;;;;;;;;;;27.20;69.30;;;;;;6105740;23;20429;-87
2022/07/07 14:17:14;;;;;;;;;;;27.40;70.70;;;;;;6077775;23;19941;-86
2022/07/07 14:19:44;;;;;;;;;;;27.60;70.90;;;;;;6107898;23;19925;-86
2022/07/07 14:22:14;;;;;;;;;;;27.70;69.20;;;;;;6084984;23;19921;-88
2022/07/07 14:24:44;;;;;;;;;;;27.30;68.90;;;;;;6112472;23;19925;-87
2022/07/07 14:27:11;;;;;;;;;;;27.70;69.40;;;;;;6128862;23;19926;-85
2022/07/07 14:29:39;;;;;;;;;;;27.80;70.10;;;;;;6076169;23;19925;-86
2022/07/07 14:32:07;;;;;;;;;;;28.00;70.30;;;;;;6102025;23;20360;-86
2022/07/07 14:34:35;;;;;;;;;;;27.80;69.90;;;;;;6098066;23;19925;-87
2022/07/07 14:37:14;;;;;;;;;;;27.40;70.50;;;;;;6097318;23;19932;-85
2022/07/07 14:39:43;;;;;;;;;;;27.30;70.70;;;;;;6100686;23;20228;-85
2022/07/07 14:42:12;;;;;;;;;;;27.50;70.80;;;;;;6100212;23;19921;-86
2022/07/07 14:44:44;;;;;;;;;;;27.70;69.60;;;;;;6092940;23;19928;-85
2022/07/07 14:47:12;;;;;;;;;;;28.10;69.10;;;;;;6099952;23;19932;-85
2022/07/07 14:49:42;;;;;;;;;;;28.50;68.60;;;;;;6120492;23;19928;-84
2022/07/07 14:52:18;;;;;;;;;;;28.90;67.30;;;;;;6095082;23;19930;-86